D/T METAR WX W/DIR W/SPE G/SPE TEMP DEWP
16/01/19 03:01 EGUN 160301Z 22011KT 9999 BKN020 BKN026 BKN041 08/08 A2977 RMK AO2A CIG 020V041 SLP085 WND DATA ESTMD $ SW (220°) 12.7mph 8°C 8°C
16/01/19 02:51 EGUN 160251Z 22012KT 9999 SCT023 SCT041 08/08 A2977 RMK AO2A SLP085 WND DATA ESTMD $ SW (220°) 13.8mph 8°C 8°C
16/01/19 01:56 EGUN 160156Z 22012KT 9999 OVC023 08/08 A2980 RMK AO2A OVC V BKN SLP095 T00800080 WND DATA ESTMD . SW (220°) 13.8mph 8°C 8°C
16/01/19 01:36 EGUN 160136Z 22011KT 9999 BKN023 OVC033 08/08 A2981 RMK AO2A CIG 021V035 SLP098 WND DATA ESTMD $ SW (220°) 12.7mph 8°C 8°C
16/01/19 00:56 EGUN 160056Z 22010KT 9999 SCT022 OVC033 08/08 A2983 RMK AO2A SLP105 T00790079 WND DATA ESTMD . SW (220°) 11.5mph 7.9°C 7.9°C
15/01/19 23:56 EGUN 152356Z 22012KT 9999 OVC031 08/08 A2984 RMK AO2A SLP108 T00790079 10081 20077 401000024 WND DATA ESTMD . SW (220°) 13.8mph 7.9°C 7.9°C
15/01/19 23:31 EGUN 152331Z 22010KT 9999 OVC029 08/08 A2985 RMK AO2A SLP112 WND DATA ESTMD $ SW (220°) 11.5mph 8°C 8°C
15/01/19 20:56 EGUN 152056Z AUTO M 9999 BKN035 08/08 A2991 RMK AO2 SLP132 T00790079 57010 . N (0°) 7.9°C 7.9°C
15/01/19 20:41 EGUN 152041Z AUTO M 9999 SCT037 08/08 A2991 RMK AO2 SLP132 $ N (0°) 8°C 8°C
15/01/19 19:56 EGUN 151956Z 22010KT 9999 OVC037 08/08 A2992 RMK AO2A SLP135 WND DATA ESTMD T00810081 . SW (220°) 11.5mph 8.1°C 8.1°C
15/01/19 18:56 EGUN 151856Z 23012KT 9999 OVC038 09/09 A2993 RMK AO2A SLP139 WND DATA ESTMD T00860086 . SW (230°) 13.8mph 8.6°C 8.6°C
15/01/19 17:56 EGUN 151756Z 22012KT 9999 OVC037 09/09 A2994 RMK AO2A SLP142 WND DATA ESTMD T00850085 10100 20069 57013 . SW (220°) 13.8mph 8.5°C 8.5°C
15/01/19 16:56 EGUN 151656Z 23008KT 9999 BKN039 08/08 A2995 RMK AO2A SLP146 WND DATA ESTMD T00770077 . SW (230°) 9.2mph 7.7°C 7.7°C
15/01/19 16:46 EGUN 151646Z 23008KT 9999 BKN041 07/07 A2996 RMK AO2A SLP149 WND DATA ESTMD $ SW (230°) 9.2mph 7°C 7°C
15/01/19 15:56 EGUN 151556Z 23008KT 9999 CLR 08/08 A2997 RMK AO2A SLP152 WND DATA ESTMD T00750075 . SW (230°) 9.2mph 7.5°C 7.5°C
15/01/19 14:56 EGUN 151456Z 22009KT 9999 CLR 08/08 A2998 RMK AO2A SLP156 WND DATA ESTMD T00810081 56015 . SW (220°) 10.4mph 8.1°C 8.1°C
15/01/19 13:56 EGUN 151356Z AUTO M 9999 FEW016 FEW024 10/10 A2998 RMK AO2 SLP156 T00980098 . N (0°) 9.8°C 9.8°C
15/01/19 12:56 EGUN 151256Z 24013KT 9999 CLR 10/09 A3000 RMK AO2A SLP163 WND DATA ESTMD T00970094 . WSW (240°) 15.0mph 9.7°C 9.4°C
15/01/19 11:56 EGUN 151156Z COR AUTO 23015KT 9999 CLR 10/09 A3002 RMK AO2 SLP169 WND DATA ESTMD T00970089 10097 20037 57010 $ COR 1214 SW (230°) 17.3mph 9.7°C 8.9°C
15/01/19 10:56 EGUN 151056Z AUTO M 9999 CLR 09/09 A3004 RMK AO2 SLP176 T00880088 . N (0°) 8.8°C 8.8°C
15/01/19 09:56 EGUN 150956Z 24014KT 9999 CLR 07/07 A3005 RMK AO2A SLP179 WND DATA ESTMD T00730073 . WSW (240°) 16.1mph 7.3°C 7.3°C
15/01/19 09:36 EGUN 150936Z 24015KT 9999 SCT045 06/06 A3005 RMK AO2A SLP180 WND DATA ESTMD $ WSW (240°) 17.3mph 6°C 6°C
15/01/19 08:56 EGUN 150856Z 23010KT 9999 OVC039 06/06 A3005 RMK AO2A SLP180 WND DATA ESTMD T00590059 56006 . SW (230°) 11.5mph 5.9°C 5.9°C
15/01/19 07:56 EGUN 150756Z 24011KT 9999 OVC037 05/05 A3005 RMK AO2A SLP180 T00490049 WND DATA ESTMD . WSW (240°) 12.7mph 4.9°C 4.9°C
15/01/19 06:56 EGUN 150656Z 25009KT 9999 OVC035 04/04 A3006 RMK AO2A SLP183 T00410041 WND DATA ESTMD . WSW (250°) 10.4mph 4.1°C 4.1°C
15/01/19 05:56 EGUN 150556Z 24009KT 9999 OVC038 04/04 A3007 RMK AO2A SLP186 T00370037 10042 20024 57012 WND DATA ESTMD . WSW (240°) 10.4mph 3.7°C 3.7°C
15/01/19 05:31 EGUN 150531Z 24009KT 9999 BKN037 03/03 A3007 RMK AO2A SLP186 WND DATA ESTMD $ WSW (240°) 10.4mph 3°C 3°C
15/01/19 04:56 EGUN 150456Z 34007KT 9999 CLR 03/03 A3008 RMK AO2A SLP190 T00300030 WND DATA ESTMD . NNW (340°) 8.1mph 3°C 3°C
15/01/19 03:56 EGUN 150356Z AUTO M 9999 FEW038 03/03 A3009 RMK AO2 SLP193 T00290029 . N (0°) 2.9°C 2.9°C
15/01/19 02:56 EGUN 150256Z 34008KT 9999 CLR 03/03 A3010 RMK AO2A SLP196 T00300030 57012 WND DATA ESTMD . NNW (340°) 9.2mph 3°C 3°C
15/01/19 01:56 EGUN 150156Z 24007KT 9999 CLR 03/03 A3012 RMK AO2A SLP203 T00270027 WND DATA ESTMD . WSW (240°) 8.1mph 2.7°C 2.7°C
15/01/19 00:56 EGUN 150056Z 25007KT 9999 CLR 03/03 A3013 RMK AO2A SLP207 T00280028 WND DATA ESTMD . WSW (250°) 8.1mph 2.8°C 2.8°C
15/01/19 00:01 EGUN 150001Z 26007KT 9999 SCT049 04/04 A3014 RMK AO2A SLP210 WND DATA ESTMD $ W (260°) 8.1mph 4°C 4°C
14/01/19 23:46 EGUN 142346Z 26009KT 9999 BKN048 05/05 A3014 RMK AO2A SLP210 WND DATA ESTMD $ W (260°) 10.4mph 5°C 5°C
14/01/19 22:56 EGUN 142256Z 26008KT 9999 OVC044 05/05 A3015 RMK AO2A SLP213 T00540054 WND DATA ESTMD . W (260°) 9.2mph 5.4°C 5.4°C
14/01/19 21:56 EGUN 142156Z 25007KT 9999 BKN048 05/05 A3014 RMK AO2A SLP210 T00460046 WND DATA ESTMD . WSW (250°) 8.1mph 4.6°C 4.6°C
14/01/19 21:46 EGUN 142146Z 25007KT 9999 BKN048 04/04 A3014 RMK AO2A SLP210 WND DATA ESTMD $ WSW (250°) 8.1mph 4°C 4°C
14/01/19 20:56 EGUN 142056Z 26006KT 9999 BKN050 05/05 A3015 RMK AO2A SLP213 T00470047 50001 WND DATA ESTMD . W (260°) 6.9mph 4.7°C 4.7°C
14/01/19 19:56 EGUN 141956Z 24007KT 9999 BKN055 05/05 A3014 RMK AO2A SLP210 WND DATA ESTMD T00490049 . WSW (240°) 8.1mph 4.9°C 4.9°C
14/01/19 18:56 EGUN 141856Z 24006KT 9999 SCT028 OVC055 05/05 A3015 RMK AO2A SLP213 T00450045 . WSW (240°) 6.9mph 4.5°C 4.5°C
14/01/19 18:41 EGUN 141841Z 23005KT 9999 SCT026 BKN032 OVC055 04/04 A3015 RMK AO2A SLP213 WND DATA ESTMD $ SW (230°) 5.8mph 4°C 4°C
14/01/19 17:56 EGUN 141756Z 23003KT 9999 SCT055 03/03 A3014 RMK AO2A SLP210 WND DATA ESTMD 60000 T00340034 10084 20034 50007 . SW (230°) 3.5mph 3.4°C 3.4°C
14/01/19 16:56 EGUN 141656Z 27006KT 9999 SCT055 06/06 A3015 RMK AO2A SLP213 WND DATA ESTMD T00590059 . W (270°) 6.9mph 5.9°C 5.9°C
14/01/19 15:56 EGUN 141556Z 30003KT 9999 OVC055 06/06 A3014 RMK AO2A SLP210 WND DATA ESTMD T00620062 . WNW (300°) 3.5mph 6.2°C 6.2°C
14/01/19 14:56 EGUN 141456Z 30006KT 9999 CLR 08/07 A3012 RMK AO2A SLP203 WND DATA ESTMD 60000 T00820074 51006 . WNW (300°) 6.9mph 8.2°C 7.4°C
14/01/19 14:31 EGUN 141431Z 31006KT 9999 SCT050 08/07 A3012 RMK AO2A SLP203 WND DATA ESTMD $ NW (310°) 6.9mph 8°C 7°C
14/01/19 14:01 EGUN 141401Z 32006KT 9999 OVC049 08/08 A3011 RMK AO2A SLP200 WND DATA ESTMD $ NW (320°) 6.9mph 8°C 8°C
14/01/19 13:05 EGUN 141305Z 32006KT 9999 SCT028 SCT041 BKN050 07/07 A3011 RMK AO2A RAE1257DZB1257E05 SLP200 WND DATA ESTMD $ NW (320°) 6.9mph 7°C 7°C
14/01/19 12:50 EGUN 141250Z 32009KT 9999 -RA BKN027 OVC050 08/08 A3011 RMK AO2A RAB45 CIG 027V050 SLP200 WND DATA ESTMD $ -RA NW (320°) 10.4mph 8°C 8°C
14/01/19 11:56 EGUN 141156Z 30009KT 9999 OVC049 08/08 A3011 RMK AO2A SLP200 WND DATA ESTMD 70002 T00750075 10078 20031 52014 . WNW (300°) 10.4mph 7.5°C 7.5°C
14/01/19 11:01 EGUN 141101Z 31006KT 9999 BKN041 07/07 A3010 RMK AO2A SLP196 WND DATA ESTMD $ NW (310°) 6.9mph 7°C 7°C
14/01/19 10:36 EGUN 141036Z 28009KT 9999 SCT040 07/07 A3009 RMK AO2A SLP193 WND DATA ESTMD $ W (280°) 10.4mph 7°C 7°C
14/01/19 09:56 EGUN 140956Z 30005KT 9999 OVC039 06/06 A3008 RMK AO2A SLP190 WND DATA ESTMD T00630063 . WNW (300°) 5.8mph 6.3°C 6.3°C
14/01/19 08:56 EGUN 140856Z 29008KT 9999 BKN045 05/05 A3006 RMK AO2A SLP183 WND DATA ESTMD T00500050 52028 . WNW (290°) 9.2mph 5°C 5°C
14/01/19 08:46 EGUN 140846Z 31006KT 9999 BKN045 04/04 A3006 RMK AO2A SLP183 WND DATA ESTMD $ NW (310°) 6.9mph 4°C 4°C
14/01/19 07:56 EGUN 140756Z 29006KT 9999 BKN044 04/04 A3004 RMK AO2A SLP176 WND DATA ESTMD T00410041 . WNW (290°) 6.9mph 4.1°C 4.1°C
14/01/19 06:56 EGUN 140656Z 28007KT 9999 BKN200 04/04 A3001 RMK AO2A SLP166 WND DATA ESTMD T00370037 . W (280°) 8.1mph 3.7°C 3.7°C
14/01/19 05:56 EGUN 140556Z 29009KT 9999 CLR 05/05 A2998 RMK AO2A SLP156 WND DATA ESTMD T00470047 10066 20041 52019 . WNW (290°) 10.4mph 4.7°C 4.7°C
14/01/19 04:56 EGUN 140456Z 29011KT 9999 CLR 05/05 A2996 RMK AO2A SLP149 WND DATA ESTMD T00490049 . WNW (290°) 12.7mph 4.9°C 4.9°C
14/01/19 03:56 EGUN 140356Z 28008KT 9999 CLR 04/04 A2995 RMK AO2A SLP146 WND DATA ESTMD T00440044 . W (280°) 9.2mph 4.4°C 4.4°C
14/01/19 02:56 EGUN 140256Z 28011KT 9999 CLR 05/05 A2993 RMK AO2A SLP139 WND DATA ESTMD T00520052 52019 . W (280°) 12.7mph 5.2°C 5.2°C
14/01/19 01:56 EGUN 140156Z 29010KT 9999 CLR 05/05 A2991 RMK AO2A SLP132 WND DATA ESTMD T00530053 . WNW (290°) 11.5mph 5.3°C 5.3°C
14/01/19 00:56 EGUN 140056Z 29012KT 9999 CLR 06/06 A2989 RMK AO2A SLP125 WND DATA ESTMD T00600060 . WNW (290°) 13.8mph 6°C 6°C
14/01/19 00:11 EGUN 140011Z 29014G19KT 9999 CLR 06/06 A2987 RMK SLP118 WND DATA ESTMD $ WNW (290°) 16.1mph 21.9mph 6°C 6°C
13/01/19 22:56 EGUN 132256Z 29013KT 9999 CLR 07/07 A2985 RMK AO2A SLP112 WND DATA ESTMD T00670067 . WNW (290°) 15.0mph 6.7°C 6.7°C
13/01/19 21:56 EGUN 132156Z 29014G19KT 9999 CLR 07/07 A2984 RMK AO2A SLP108 WND DATA ESTMD T00710070 . WNW (290°) 16.1mph 21.9mph 7.1°C 7°C
13/01/19 20:56 EGUN 132056Z 29011KT 9999 CLR 07/07 A2983 RMK AO2A SLP105 WND DATA ESTMD 60000 T00670067 52016 . WNW (290°) 12.7mph 6.7°C 6.7°C
13/01/19 19:56 EGUN 131956Z 29012G20KT 9999 CLR 08/07 A2981 RMK AO2A SLP098 WND DATA ESTMD T00780066 . WNW (290°) 13.8mph 23.0mph 7.8°C 6.6°C
13/01/19 18:56 EGUN 131856Z 30012G24KT 9999 FEW036 FEW044 BKN060 09/08 A2980 RMK AO2A RAB1756E06 SLP095 WND DATA ESTMD P0000 T00910083 . WNW (300°) 13.8mph 27.6mph 9.1°C 8.3°C
13/01/19 18:31 EGUN 131831Z 31009KT 9999 FEW030 FEW037 SCT048 OVC060 09/09 A2980 RMK AO2A RAB1756E06 SLP095 WND DATA ESTMD $ NW (310°) 10.4mph 9°C 9°C
13/01/19 18:06 EGUN 131806Z AUTO M 9999 FEW028 BKN047 BKN060 10/10 A2978 RMK AO2 RAB1756E06 SLP088 $ N (0°) 10°C 10°C
13/01/19 17:39 EGUN 131739Z 28012G20KT 9999 FEW022 SCT031 OVC042 09/09 A2978 RMK AO2A RAB10E39 SLP088 WND DATA ESTMD $ W (280°) 13.8mph 23.0mph 9°C 9°C
13/01/19 17:10 EGUN 131710Z 29012G20KT 9999 -RA SCT033 BKN041 OVC055 11/11 A2977 RMK AO2A RAB10 SLP084 WND DATA ESTMD $ -RA WNW (290°) 13.8mph 23.0mph 11°C 11°C
13/01/19 16:31 EGUN 131631Z COR AUTO 128015G23KT 9999 SCT035 OVC055 11/11 A2976 RMK AO2 SLP081 WND DATA ESTMD $ COR 1646 SE (128°) 17.3mph 26.5mph 11°C 11°C
13/01/19 15:56 EGUN 131556Z 27010KT 9999 OVC037 11/11 A2975 RMK AO2A SLP078 WND DATA ESTMD T01050105 . W (270°) 11.5mph 10.5°C 10.5°C
13/01/19 14:56 EGUN 131456Z 26012KT 9999 FEW013 BKN033 BKN040 10/10 A2977 RMK AO2A RAE01 SLP084 P0000 60000 T01000100 55013 . W (260°) 13.8mph 10°C 10°C
13/01/19 14:31 EGUN 131431Z 27015G21KT 9999 FEW016 FEW028 BKN042 10/10 A2977 RMK AO2A RAE01 SLP084 WND DATA ESTMD $ W (270°) 17.3mph 24.2mph 10°C 10°C
13/01/19 14:06 EGUN 131406Z 26018KT 9999 BKN014 10/10 A2977 RMK AO2A RAE01 CIG 013 RWY11 SLP084 WND DATA ESTMD $ W (260°) 20.7mph 10°C 10°C
13/01/19 13:42 EGUN 131342Z 27021G28KT 9999 -RA BKN015 OVC020 10/10 A2978 RMK AO2A RAB16E30DZB30E34RAB34 SLP088 WND DATA ESTMD $ -RA W (270°) 24.2mph 32.2mph 10°C 10°C
13/01/19 13:11 EGUN 131311Z AUTO M 9999 OVC021 11/11 A2977 RMK AO2 OVC V BKN CIG 020 RWY11 SLP084 $ N (0°) 11°C 11°C
13/01/19 12:31 EGUN 131231Z 27015G25KT 9999 FEW020 BKN028 BKN048 OVC055 11/11 A2978 RMK AO2A CIG 028V055 SLP088 WND DATA ESTMD $ W (270°) 17.3mph 28.8mph 11°C 11°C
13/01/19 11:56 EGUN 131156Z 27020G30KT 9999 BKN037 BKN060 11/11 A2981 RMK AO2A PK WND 28028/18 SLP098 WND DATA ESTMD T01070107 10107 20100 58012 . W (270°) 23.0mph 34.5mph 10.7°C 10.7°C
13/01/19 10:56 EGUN 131056Z AUTO M 9999 BKN060 BKN160 11/11 A2983 RMK AO2 SLP105 T01060106 . N (0°) 10.6°C 10.6°C
13/01/19 10:01 EGUN 131001Z COR AUTO 26015G25KT 9999 SCT028 BKN170 10/10 A2984 RMK AO2 SLP108 WND DATA ESTMD $ COR 1035 W (260°) 17.3mph 28.8mph 10°C 10°C
13/01/19 10:01 EGUN 131001Z AUTO M 9999 SCT028 BKN170 10/10 A2984 RMK AO2 SLP108 $ N (0°) 10°C 10°C
13/01/19 09:31 EGUN 130931Z 26010G15KT 9999 BKN028 BKN170 10/10 A2985 RMK AO2A CIG 027V180 SLP112 WND DATA ESTMD $ W (260°) 11.5mph 17.3mph 10°C 10°C
13/01/19 08:56 EGUN 130856Z COR 26013KT 9999 OVC027 10/10 A2984 RMK AO2A CIG 026 RWY11 SLP108 WND DATA ESTMD T01020102 57015 . COR 0858 W (260°) 15.0mph 10.2°C 10.2°C
13/01/19 07:56 EGUN 130756Z 27012KT 9999 OVC024 10/10 A2987 RMK AO2A SLP118 T01020102 WND DATA ESTMD . W (270°) 13.8mph 10.2°C 10.2°C
13/01/19 07:16 EGUN 130716Z 27010KT 9999 BKN026 OVC120 10/10 A2988 RMK AO2A CIG 023V120 BKN V SCT SLP122 WND DATA ESTMD $ W (270°) 11.5mph 10°C 10°C
13/01/19 05:56 EGUN 130556Z 28015KT 9999 BKN024 10/10 A2988 RMK AO2A SLP122 WND DATA ESTMD T01020102 10110 20098 57012 . W (280°) 17.3mph 10.2°C 10.2°C
13/01/19 05:12 EGUN 130512Z 28015G21KT 9999 BKN025 10/10 A2989 RMK BKN V SCT SLP125 WND DATA ESTMD $ W (280°) 17.3mph 24.2mph 10°C 10°C
13/01/19 04:01 EGUN 130401Z 27015KT 9999 BKN024 OVC100 10/10 A2991 RMK AO2A CIG 024V110 SLP132 WND DATA ESTMD $ W (270°) 17.3mph 10°C 10°C
13/01/19 02:56 EGUN 130256Z 27013G18KT 9999 FEW025 BKN095 11/11 A2992 RMK AO2A SLP135 WND DATA ESTMD T01060106 57016 . W (270°) 15.0mph 20.7mph 10.6°C 10.6°C
13/01/19 02:46 EGUN 130246Z 27016G24KT 9999 SCT025 BKN090 11/11 A2991 RMK AO2A SLP132 WND DATA ESTMD $ W (270°) 18.4mph 27.6mph 11°C 11°C
13/01/19 01:56 EGUN 130156Z 28016KT 9999 OVC025 11/11 A2994 RMK AO2A SLP142 T01080108 WND DATA ESTMD . W (280°) 18.4mph 10.8°C 10.8°C
13/01/19 00:56 EGUN 130056Z 28019G25KT 9999 BKN026 BKN075 OVC100 11/11 A2995 RMK AO2A PK WND 30026/13 SLP145 WND DATA ESTMD T01070107 . W (280°) 21.9mph 28.8mph 10.7°C 10.7°C
13/01/19 00:11 EGUN 130011Z 28018G25KT 9999 OVC023 11/11 A2996 RMK AO2A SLP149 WND DATA ESTMD $ W (280°) 20.7mph 28.8mph 11°C 11°C
12/01/19 22:56 EGUN 122256Z 28014KT 9999 OVC020 10/10 A2997 RMK AO2A SLP152 WND DATA ESTMD T01020102 . W (280°) 16.1mph 10.2°C 10.2°C
12/01/19 22:01 EGUN 122201Z 27015G20KT 9999 OVC019 09/09 A2998 RMK AO2A SLP156 WND DATA ESTMD $ W (270°) 17.3mph 23.0mph 9°C 9°C
12/01/19 21:21 EGUN 122121Z 26012KT 9999 OVC022 09/09 A2998 RMK AO2A SLP156 WND DATA ESTMD $ W (260°) 13.8mph 9°C 9°C
12/01/19 20:56 EGUN 122056Z 25012KT 9999 OVC017 09/09 A2999 RMK AO2A SLP159 WND DATA ESTMD T00850085 57012 . WSW (250°) 13.8mph 8.5°C 8.5°C
12/01/19 20:26 EGUN 122026Z 26013KT 9999 OVC019 09/09 A3000 RMK CIG 018 RWY11 SLP162 WND DATA ESTMD $ W (260°) 15.0mph 9°C 9°C
12/01/19 19:56 EGUN 121956Z 26012KT 9999 OVC021 09/09 A3000 RMK AO2A CIG 020 RWY11 SLP162 WND DATA ESTMD T00850085 . W (260°) 13.8mph 8.5°C 8.5°C
12/01/19 19:11 EGUN 121911Z 27015KT 9999 OVC019 08/08 A3002 RMK AO2A SLP169 WND DATA ESTMD $ W (270°) 17.3mph 8°C 8°C
12/01/19 18:41 EGUN 121841Z 26013KT 9999 OVC022 08/08 A3002 RMK AO2A SLP169 WND DATA ESTMD $ W (260°) 15.0mph 8°C 8°C
12/01/19 18:16 EGUN 121816Z 27012KT 9999 BKN025 BKN037 OVC049 08/08 A3003 RMK AO2A CIG 025V041 BKN025 V SCT SLP173 WND DATA ESTMD $ W (270°) 13.8mph 8°C 8°C
12/01/19 17:06 EGUN 121706Z 28015G21KT 9999 SCT024 BKN047 BKN060 09/09 A3003 RMK AO2A SLP173 WND DATA ESTMD $ W (280°) 17.3mph 24.2mph 9°C 9°C
12/01/19 16:41 EGUN 121641Z 28015KT 9999 BKN024 09/09 A3004 RMK AO2A CIG 024V130 SLP176 WND DATA ESTMD $ W (280°) 17.3mph 9°C 9°C
12/01/19 15:56 EGUN 121556Z 28015G21KT 9999 BKN075 BKN085 09/09 A3004 RMK AO2A PK WND 30026/02 SLP176 WND DATA ESTMD T00880088 . W (280°) 17.3mph 24.2mph 8.8°C 8.8°C
12/01/19 14:56 EGUN 121456Z 28015G25KT 9999 FEW025 BKN090 09/09 A3004 RMK AO2A SLP176 WND DATA ESTMD T00910091 56016 . W (280°) 17.3mph 28.8mph 9.1°C 9.1°C
12/01/19 13:56 EGUN 121356Z 27016KT 9999 FEW025 SCT032 BKN095 09/09 A3004 RMK AO2A SLP176 WND DATA ESTMD T00940094 . W (270°) 18.4mph 9.4°C 9.4°C
12/01/19 13:36 EGUN 121336Z 28013KT 9999 BKN035 10/10 A3005 RMK AO2A SLP179 WND DATA ESTMD $ W (280°) 15.0mph 10°C 10°C
12/01/19 12:56 EGUN 121256Z 28015KT 9999 FEW026 BKN120 09/09 A3007 RMK AO2A SLP186 WND DATA ESTMD T00940094 . W (280°) 17.3mph 9.4°C 9.4°C
12/01/19 11:56 EGUN 121156Z 27017KT 9999 BKN110 BKN130 09/09 A3009 RMK AO2A SLP193 WND DATA ESTMD T00920092 10092 20073 57014 . W (270°) 19.6mph 9.2°C 9.2°C
12/01/19 11:06 EGUN 121106Z 26015KT 9999 SCT041 BKN100 09/09 A3010 RMK AO2A SLP196 WND DATA ESTMD $ W (260°) 17.3mph 9°C 9°C
12/01/19 10:46 EGUN 121046Z 27017G23KT 9999 BKN044 09/09 A3011 RMK AO2A SLP200 WND DATA ESTMD $ W (270°) 19.6mph 26.5mph 9°C 9°C
12/01/19 09:56 EGUN 120956Z 26014KT 9999 BKN055 09/09 A3012 RMK AO2A SLP203 WND DATA ESTMD T00870087 . W (260°) 16.1mph 8.7°C 8.7°C
12/01/19 08:56 EGUN 120856Z 27015KT 9999 FEW170 FEW200 08/08 A3013 RMK AO2A SLP207 T00820082 56012 WND DATA ESTMD . W (270°) 17.3mph 8.2°C 8.2°C
12/01/19 07:56 EGUN 120756Z 26015KT 9999 SCT055 08/08 A3013 RMK AO2A SLP207 T00750075 WND DATA ESTMD . W (260°) 17.3mph 7.5°C 7.5°C
12/01/19 06:56 EGUN 120656Z M 9999 FEW018 FEW075 SCT110 08/08 A3015 RMK AO2A SLP213 T00770077 . N (0°) 7.7°C 7.7°C
12/01/19 06:36 EGUN 120636Z 25013KT 9999 SCT019 BKN110 08/08 A3015 RMK AO2A SLP213 $ WSW (250°) 15.0mph 8°C 8°C
12/01/19 06:11 EGUN 120611Z 24012KT 9999 BKN021 OVC028 08/08 A3016 RMK AO2A SLP217 $ WSW (240°) 13.8mph 8°C 8°C
12/01/19 05:26 EGUN 120526Z AUTO 24014KT 9999 SCT026 07/07 A3017 RMK AO2 SLP220 $ WSW (240°) 16.1mph 7°C 7°C
12/01/19 04:56 EGUN 120456Z 24012KT 9999 OVC023 08/08 A3019 RMK AO2A SLP227 T00750075 . WSW (240°) 13.8mph 7.5°C 7.5°C
12/01/19 03:56 EGUN 120356Z 23008KT 9999 OVC025 07/07 A3023 RMK AO2A SLP240 T00730073 . SW (230°) 9.2mph 7.3°C 7.3°C
12/01/19 02:56 EGUN 120256Z 25011KT 9999 OVC029 07/07 A3025 RMK AO2A SLP247 T00720072 57019 . WSW (250°) 12.7mph 7.2°C 7.2°C
12/01/19 01:56 EGUN 120156Z 25010KT 9999 OVC036 07/07 A3027 RMK AO2A SLP254 T00710071 . WSW (250°) 11.5mph 7.1°C 7.1°C
12/01/19 00:56 EGUN 120056Z 26009KT 9999 OVC033 07/07 A3028 RMK AO2A SLP257 T00660066 . W (260°) 10.4mph 6.6°C 6.6°C
11/01/19 23:56 EGUN 112356Z 24008KT 9999 OVC034 06/06 A3031 RMK AO2A SLP268 T00610061 10064 20059 400840051 57019 . WSW (240°) 9.2mph 6.1°C 6.1°C
11/01/19 22:56 EGUN 112256Z 26008KT 9999 OVC032 06/06 A3034 RMK AO2A SLP278 T00610061 . W (260°) 9.2mph 6.1°C 6.1°C
11/01/19 21:56 EGUN 112156Z 26004KT 9999 OVC036 06/06 A3035 RMK AO2A SLP281 T00610061 . W (260°) 4.6mph 6.1°C 6.1°C
11/01/19 20:56 EGUN 112056Z 28007KT 9999 OVC031 06/06 A3036 RMK AO2A SLP284 T00640064 58004 WND DATA ESTMD . W (280°) 8.1mph 6.4°C 6.4°C
11/01/19 19:56 EGUN 111956Z 29007KT 9999 OVC034 06/06 A3037 RMK AO2A SLP288 WND DATA ESTMD T00620062 . WNW (290°) 8.1mph 6.2°C 6.2°C
11/01/19 18:56 EGUN 111856Z 27006KT 9999 OVC036 06/06 A3038 RMK AO2A SLP291 WND DATA ESTMD T00590059 . W (270°) 6.9mph 5.9°C 5.9°C
11/01/19 17:56 EGUN 111756Z 26006KT 9999 OVC039 06/06 A3038 RMK AO2A SLP291 WND DATA ESTMD T00600060 10084 20060 55003 . W (260°) 6.9mph 6°C 6°C
11/01/19 16:56 EGUN 111656Z 26004KT 9999 OVC040 06/06 A3038 RMK AO2A SLP291 WND DATA ESTMD T00640064 . W (260°) 4.6mph 6.4°C 6.4°C
11/01/19 15:56 EGUN 111556Z 30005KT 9999 OVC042 07/07 A3038 RMK AO2A SLP291 WND DATA ESTMD T00730073 . WNW (300°) 5.8mph 7.3°C 7.3°C
11/01/19 14:56 EGUN 111456Z 31005KT 9999 OVC043 07/07 A3038 RMK AO2A SLP291 WND DATA ESTMD T00740074 55005 . NW (310°) 5.8mph 7.4°C 7.4°C
11/01/19 13:56 EGUN 111356Z 30005KT 9999 OVC038 07/07 A3038 RMK AO2A SLP291 WND DATA ESTMD T00730073 . WNW (300°) 5.8mph 7.3°C 7.3°C
11/01/19 12:56 EGUN 111256Z 30006KT 9999 FEW025 OVC035 08/08 A3039 RMK AO2A SLP295 WND DATA ESTMD T00760076 . WNW (300°) 6.9mph 7.6°C 7.6°C
11/01/19 11:56 EGUN 111156Z 32006KT 9999 SCT029 OVC039 08/08 A3040 RMK AO2A SLP298 WND DATA ESTMD T00760076 10076 20051 50003 . NW (320°) 6.9mph 7.6°C 7.6°C
11/01/19 11:16 EGUN 111116Z 33004KT 9999 BKN031 OVC038 07/07 A3040 RMK AO2A SLP298 WND DATA ESTMD $ NNW (330°) 4.6mph 7°C 7°C
11/01/19 10:41 EGUN 111041Z 33004KT 9999 BKN029 OVC037 07/07 A3041 RMK AO2A SLP301 WND DATA ESTMD $ NNW (330°) 4.6mph 7°C 7°C
11/01/19 09:56 EGUN 110956Z 32004KT 9999 OVC050 06/06 A3040 RMK AO2A SLP298 WND DATA ESTMD T00620062 . NW (320°) 4.6mph 6.2°C 6.2°C